• Join FlightAware (Why Join?)
  • Login
  • US Flag 
 
01:56AM EST


 

Airport Tracker/Info


-or-


 

Live Flight TrackerFlight Track Log ✈ UAL5419 ✈ 28-Apr-2013 ✈ KMKE - KORD

Flight Track Log - Related Links

Times and Time Zones

All times are in EDT time to prevent confusion due to time zone crossing. See the UAL5419 flight status page for this flight to view local times or setup timezone preferences in your user account.

Time Position Orientation Groundspeed Altitude Reporting Facility
EDT Latitude Longitude Course Direction KTS MPH feet Rate Location/Type
02:48PM 42.9500 -87.8833 189° South 151 174 1,200  Level KMKE
02:48PM 42.9500 -87.8667 90° East 149 171 1,900 1,980 Climbing KMKE
02:49PM 42.9333 -87.8167 114° Southeast 217 250 3,800 1,800 Climbing KMKE
02:50PM 42.8847 -87.8653 216° Southwest 228 262 5,300 2,100 Climbing Chicago Center
02:51PM 42.5537 -87.9010 182° South  Level Estimated
02:51PM 42.8303 -87.9381 224° Southwest 263 303 7,800  Level Chicago Center
02:52PM 42.4554 -87.9020 185° South  Level Estimated
02:52PM 42.7719 -88.0139 224° Southwest 281 323 8,000  Level Chicago Center
02:53PM 42.3583 -87.9230 189° South  Level FlightAware Approximate
02:53PM 42.7147 -88.0894 224° Southwest 285 328 8,000  Level Chicago Center
02:54PM 42.6475 -88.1772 224° Southwest 287 330 8,000  Level Chicago Center
02:55PM 42.5869 -88.2381 216° Southwest 278 320 8,000  Level Chicago Center
02:56PM 42.5072 -88.2300 176° South 284 327 8,000  Level Chicago Center
02:57PM 42.4272 -88.2206 175° South 288 331 8,100  Climbing Chicago Center
02:58PM 42.3503 -88.2150 177° South 277 319 8,100 -540 Level Chicago Center
02:59PM 42.2742 -88.2267 186° South 276 318 7,100 -960 Descending Chicago Center
03:00PM 42.1986 -88.1689 150° Southeast 263 303 6,100 -960 Descending Chicago Center
03:01PM 42.1500 -88.1125 139° Southeast 238 274 5,200 -1,020 Descending Chicago Center
03:02PM 42.1031 -88.0617 141° Southeast 224 258 4,000 -1,440 Descending Chicago Center
03:03PM 42.0500 -88.0000 139° Southeast 186 214 2,300 -1,620 Descending Chicago TRACON